Time;durP1;ratioP1;P1;durP2;ratioP2;P2;SDS_P1;SDS_P2;PMS_P1;PMS_P2;Temp;Humidity;BMP_temperature;BMP_pressure;BME280_temperature;BME280_humidity;BME280_pressure;Samples;Min_cycle;Max_cycle;Signal;HPM_P1;HPM_P2
2021/12/17 00:01:09;;;;;;;86.00;20.70;;;8.20;99.90;;;;;;4943717;29;20090;-92
2021/12/17 00:03:43;;;;;;;62.87;17.57;;;8.30;99.90;;;;;;4938017;29;20067;-91
2021/12/17 00:06:29;;;;;;;88.13;19.40;;;7.40;99.90;;;;;;4937362;29;20040;-91
2021/12/17 00:09:09;;;;;;;78.77;20.07;;;7.90;99.90;;;;;;4937540;29;20697;-92
2021/12/17 00:11:38;;;;;;;44.67;13.67;;;8.40;99.90;;;;;;4937532;29;20063;-90
2021/12/17 00:14:27;;;;;;;59.43;17.20;;;7.60;99.90;;;;;;4936458;29;20743;-91
2021/12/17 00:17:01;;;;;;;49.60;14.87;;;7.60;99.90;;;;;;4936910;29;20051;-92
2021/12/17 00:48:42;;;;;;;43.07;14.63;;;7.20;99.90;;;;;;4937626;29;20055;-90
2021/12/17 00:54:03;;;;;;;36.90;13.30;;;8.40;99.90;;;;;;4938495;29;20187;-92
2021/12/17 00:56:51;;;;;;;46.97;14.83;;;7.40;99.90;;;;;;4936877;29;20047;-91
2021/12/17 00:59:29;;;;;;;49.80;15.87;;;7.90;99.90;;;;;;4883775;29;20053;-91
2021/12/17 01:01:58;;;;;;;40.80;14.93;;;7.60;99.90;;;;;;4935674;29;20102;-91
2021/12/17 01:04:24;;;;;;;44.40;15.17;;;7.90;99.90;;;;;;4936751;29;20395;-92
2021/12/17 01:06:59;;;;;;;41.30;14.73;;;8.00;99.90;;;;;;4936152;29;20040;-92
2021/12/17 01:09:28;;;;;;;42.83;14.87;;;7.60;99.90;;;;;;4935766;29;20504;-92
2021/12/17 01:11:56;;;;;;;46.77;15.70;;;8.10;99.90;;;;;;4935975;29;20047;-91
2021/12/17 01:14:26;;;;;;;50.60;16.40;;;8.50;99.90;;;;;;4936547;29;20054;-90
2021/12/17 01:16:55;;;;;;;48.50;15.83;;;7.80;99.90;;;;;;4935654;29;20500;-91
2021/12/17 01:37:12;;;;;;;44.80;13.50;;;8.10;99.90;;;;;;4916019;29;20052;-90
2021/12/17 01:42:31;;;;;;;37.80;11.83;;;7.90;99.90;;;;;;4916805;29;20139;-91
2021/12/17 01:44:57;;;;;;;34.00;10.63;;;8.10;99.90;;;;;;4916143;29;20048;-91
2021/12/17 01:47:23;;;;;;;29.10;9.50;;;7.00;99.90;;;;;;4917315;29;20040;-91
2021/12/17 01:55:49;;;;;;;35.53;11.37;;;8.10;99.90;;;;;;4916621;29;20083;-91
2021/12/17 02:02:02;;;;;;;35.63;10.17;;;7.50;99.90;;;;;;4881912;29;20060;-91
2021/12/17 02:04:30;;;;;;;38.20;10.87;;;7.50;99.90;;;;;;4916492;29;20056;-92
2021/12/17 02:06:57;;;;;;;33.27;10.53;;;8.40;99.90;;;;;;4915616;29;20382;-93
2021/12/17 02:09:57;;;;;;;35.07;9.93;;;8.20;99.90;;;;;;4916646;29;20052;-93
2021/12/17 02:33:18;;;;;;;43.63;10.93;;;8.40;99.90;;;;;;4934334;29;20044;-93
2021/12/17 02:35:47;;;;;;;36.57;10.10;;;7.30;99.90;;;;;;5071437;23;20042;-93
2021/12/17 02:38:16;;;;;;;38.37;11.07;;;7.20;99.90;;;;;;5059345;23;20085;-93
2021/12/17 02:46:24;;;;;;;42.60;10.50;;;7.60;99.90;;;;;;5078512;23;20252;-92
2021/12/17 02:48:59;;;;;;;42.73;10.63;;;7.30;99.90;;;;;;4957409;28;20103;-93
2021/12/17 02:51:31;;;;;;;41.50;11.30;;;7.30;99.90;;;;;;4957775;28;20054;-93
2021/12/17 02:53:59;;;;;;;38.13;11.53;;;8.40;99.90;;;;;;4957842;28;20509;-90
2021/12/17 02:56:30;;;;;;;42.53;11.80;;;7.80;99.90;;;;;;5184524;23;20046;-92
2021/12/17 02:59:03;;;;;;;48.20;11.60;;;7.90;99.90;;;;;;5252372;23;20039;31
2021/12/17 03:01:30;;;;;;;44.38;11.73;;;7.60;99.90;;;;;;5301941;23;20039;-91
2021/12/17 03:03:59;;;;;;;43.87;12.20;;;7.50;99.90;;;;;;4961376;28;20055;-92
2021/12/17 03:06:25;;;;;;;51.37;12.60;;;7.40;99.90;;;;;;4956926;28;20046;-93
2021/12/17 03:09:21;;;;;;;41.60;11.17;;;7.50;99.90;;;;;;4979304;23;20522;-92
2021/12/17 03:12:32;;;;;;;50.10;12.77;;;7.50;99.90;;;;;;4957042;28;20080;-92
2021/12/17 03:24:05;;;;;;;45.57;11.90;;;7.90;99.90;;;;;;4956992;23;20047;-93
2021/12/17 03:26:41;;;;;;;50.87;12.23;;;7.50;99.90;;;;;;4946987;23;20053;-92
2021/12/17 03:29:16;;;;;;;49.03;12.20;;;7.80;99.90;;;;;;4979127;23;20058;-93
2021/12/17 03:31:52;;;;;;;42.80;12.50;;;7.60;99.90;;;;;;4936584;29;20052;-92
2021/12/17 03:34:19;;;;;;;50.10;12.07;;;7.80;99.90;;;;;;4938580;29;20065;-93
2021/12/17 03:36:57;;;;;;;40.00;11.70;;;7.80;99.90;;;;;;4937547;29;20039;-93
2021/12/17 03:39:37;;;;;;;41.63;13.07;;;6.90;99.90;;;;;;4938441;29;20058;-93
2021/12/17 03:44:32;;;;;;;39.87;12.30;;;7.60;99.90;;;;;;5017412;23;20388;-92
2021/12/17 03:49:52;;;;;;;45.13;12.53;;;7.60;99.90;;;;;;4956501;28;20110;-93
2021/12/17 03:55:34;;;;;;;49.47;13.43;;;7.60;99.90;;;;;;4986512;23;20118;-92
2021/12/17 03:58:19;;;;;;;52.00;12.37;;;7.50;99.90;;;;;;4959108;28;20142;-93
2021/12/17 04:01:36;;;;;;;47.53;12.63;;;7.60;99.90;;;;;;4938913;29;20063;-93
2021/12/17 04:08:23;;;;;;;49.37;13.03;;;7.60;99.90;;;;;;5000317;23;20054;-93
2021/12/17 04:11:04;;;;;;;34.03;10.87;;;7.70;99.90;;;;;;4959772;28;20110;-92
2021/12/17 04:13:38;;;;;;;49.17;12.73;;;7.80;99.90;;;;;;4960340;28;20043;-92
2021/12/17 04:16:12;;;;;;;49.13;13.40;;;7.80;99.90;;;;;;4959882;28;20050;-92
2021/12/17 04:18:47;;;;;;;44.77;13.53;;;6.90;99.90;;;;;;4959565;28;20134;-92
2021/12/17 04:24:28;;;;;;;40.70;11.67;;;7.50;99.90;;;;;;4981165;23;20078;-93
2021/12/17 04:27:02;;;;;;;42.53;12.10;;;7.50;99.90;;;;;;4882157;29;20152;-92
2021/12/17 04:30:18;;;;;;;39.17;12.05;;;7.90;99.90;;;;;;4987109;23;20029;-92
2021/12/17 04:32:44;;;;;;;44.07;11.90;;;7.50;99.90;;;;;;5171224;23;20098;-92
2021/12/17 04:35:09;;;;;;;40.47;11.80;;;7.70;99.90;;;;;;4959900;28;20078;-93
2021/12/17 04:37:45;;;;;;;44.40;12.20;;;8.00;99.90;;;;;;4960805;28;20051;-93
2021/12/17 04:59:26;;;;;;;44.03;12.77;;;7.40;99.90;;;;;;4976548;28;20074;-93
2021/12/17 05:02:46;;;;;;;44.17;12.57;;;7.50;99.90;;;;;;4990100;23;20047;-93
2021/12/17 05:05:55;;;;;;;48.03;13.30;;;7.20;99.90;;;;;;4975876;23;20061;-92
2021/12/17 05:11:25;;;;;;;61.13;13.33;;;7.50;99.90;;;;;;4987108;23;20151;-93
2021/12/17 05:22:59;;;;;;;;;;;8.00;99.90;;;;;;5162243;23;20113;-92
2021/12/17 05:25:33;;;;;;;47.73;12.43;;;7.90;99.90;;;;;;4959478;28;19976;-92
2021/12/17 05:28:08;;;;;;;45.20;11.33;;;7.00;99.90;;;;;;4960478;28;20502;-92
2021/12/17 05:33:59;;;;;;;45.67;12.10;;;7.40;99.90;;;;;;4920185;29;20395;-92
2021/12/17 05:39:14;;;;;;;43.40;12.27;;;7.40;99.90;;;;;;4985543;23;20055;-92
2021/12/17 05:42:05;;;;;;;51.37;12.23;;;7.90;99.90;;;;;;4965386;23;20057;-91
2021/12/17 05:44:38;;;;;;;50.80;12.33;;;7.40;99.90;;;;;;4959135;28;20476;-91
2021/12/17 05:47:12;;;;;;;56.23;13.03;;;7.40;99.90;;;;;;4962115;23;20059;-93
2021/12/17 05:53:28;;;;;;;45.60;12.67;;;7.50;99.90;;;;;;4960731;28;20062;-92
2021/12/17 05:58:36;;;;;;;39.50;11.73;;;7.40;99.90;;;;;;5367975;23;20050;-92
2021/12/17 06:04:35;;;;;;;48.67;17.73;;;7.40;99.90;;;;;;5154250;23;20118;-92
2021/12/17 06:07:04;;;;;;;87.90;51.60;;;7.30;99.90;;;;;;4938994;29;20560;-92
2021/12/17 06:09:40;;;;;;;60.23;30.40;;;7.70;99.90;;;;;;4939062;29;20051;-92
2021/12/17 06:12:19;;;;;;;69.57;33.83;;;7.80;99.90;;;;;;4947467;23;20051;-92
2021/12/17 06:14:48;;;;;;;51.57;23.07;;;8.30;99.90;;;;;;4973743;28;20050;-91
2021/12/17 06:17:26;;;;;;;39.97;13.20;;;7.80;99.90;;;;;;4963959;23;20085;-92
2021/12/17 06:20:43;;;;;;;41.60;12.77;;;7.40;99.90;;;;;;4976398;28;20053;-92
2021/12/17 06:27:05;;;;;;;41.30;13.20;;;7.40;99.90;;;;;;5318340;23;20037;-92
2021/12/17 06:29:31;;;;;;;47.10;20.00;;;7.40;99.90;;;;;;4960412;28;20058;-93
2021/12/17 06:32:14;;;;;;;37.03;11.80;;;7.90;99.90;;;;;;4958035;28;20043;-91
2021/12/17 06:34:42;;;;;;;43.15;16.02;;;8.20;99.90;;;;;;5065031;23;20059;-91
2021/12/17 06:37:08;;;;;;;33.43;12.47;;;7.40;99.90;;;;;;5160089;23;20051;-92
2021/12/17 06:39:34;;;;;;;37.43;10.27;;;7.40;99.90;;;;;;4961400;23;20058;-92
2021/12/17 06:42:08;;;;;;;31.87;10.17;;;7.90;99.90;;;;;;4952904;23;20486;-92
2021/12/17 06:44:48;;;;;;;34.70;10.30;;;7.10;99.90;;;;;;4940536;29;20046;-91
2021/12/17 06:47:32;;;;;;;30.13;9.73;;;7.50;99.90;;;;;;4954834;29;20046;-92
2021/12/17 06:58:55;;;;;;;31.27;11.27;;;7.00;99.90;;;;;;4938715;29;20051;-90
2021/12/17 07:10:41;;;;;;;32.90;9.88;;;7.60;99.90;;;;;;4939548;29;20454;-90
2021/12/17 07:24:51;;;;;;;26.73;9.77;;;7.20;99.90;;;;;;4937007;29;20058;-84
2021/12/17 07:33:11;;;;;;;;;;;7.10;99.90;;;;;;4941186;29;20051;-83
2021/12/17 07:40:55;;;;;;;38.33;11.27;;;7.50;99.90;;;;;;4940409;29;20043;-82
2021/12/17 07:43:32;;;;;;;30.40;10.00;;;7.90;99.90;;;;;;4939846;29;20053;-83
2021/12/17 07:46:04;;;;;;;33.70;9.77;;;7.30;99.90;;;;;;4940340;29;20047;-82
2021/12/17 07:48:30;;;;;;;30.97;10.03;;;7.20;99.90;;;;;;4940623;29;20094;-83
2021/12/17 07:51:16;;;;;;;31.60;11.00;;;7.50;99.90;;;;;;4934867;29;20056;-83
2021/12/17 07:54:32;;;;;;;28.23;9.43;;;7.10;99.90;;;;;;4937425;29;20075;-83
2021/12/17 07:56:58;;;;;;;30.93;10.80;;;8.00;99.90;;;;;;4938100;29;20051;-83
2021/12/17 07:59:23;;;;;;;29.97;11.37;;;7.40;99.90;;;;;;4939918;29;20047;-83
2021/12/17 08:01:55;;;;;;;31.60;10.67;;;6.80;99.90;;;;;;4939336;29;20059;-83
2021/12/17 08:04:22;;;;;;;33.03;10.90;;;8.70;99.90;;;;;;4939608;29;20054;-83
2021/12/17 08:06:47;;;;;;;34.70;11.30;;;7.90;99.90;;;;;;4939888;29;20082;-82
2021/12/17 08:09:20;;;;;;;32.07;11.23;;;8.00;99.90;;;;;;4939699;29;20600;-82
2021/12/17 08:11:57;;;;;;;35.03;12.87;;;8.90;99.90;;;;;;4938867;29;20133;-82
2021/12/17 08:14:30;;;;;;;32.07;11.40;;;7.60;99.90;;;;;;4940037;29;20059;-82
2021/12/17 08:17:38;;;;;;;32.90;12.00;;;7.90;99.90;;;;;;4939691;29;20047;-82
2021/12/17 08:25:27;;;;;;;35.27;11.90;;;7.40;99.90;;;;;;4939003;29;20051;-82
2021/12/17 08:28:05;;;;;;;31.50;12.80;;;7.20;99.90;;;;;;4939443;29;20051;-82
2021/12/17 08:30:38;;;;;;;29.10;10.83;;;7.50;99.90;;;;;;4941777;29;20051;-82
2021/12/17 08:33:10;;;;;;;31.87;10.73;;;7.60;99.90;;;;;;4923707;29;20055;-82
2021/12/17 08:35:36;;;;;;;34.30;11.53;;;8.30;99.90;;;;;;4939683;29;20110;-82
2021/12/17 08:38:08;;;;;;;34.40;12.17;;;8.20;99.90;;;;;;4939185;29;20058;-82
2021/12/17 08:40:50;;;;;;;31.57;11.60;;;7.90;99.90;;;;;;4938634;29;20400;-82
2021/12/17 08:43:15;;;;;;;27.73;10.90;;;7.60;99.90;;;;;;4937300;29;20481;-82
2021/12/17 08:45:42;;;;;;;27.33;10.93;;;7.80;99.90;;;;;;4919484;29;20121;-82
2021/12/17 08:48:17;;;;;;;27.50;11.13;;;7.50;99.90;;;;;;4937539;29;20357;-82
2021/12/17 08:50:42;;;;;;;30.83;11.63;;;8.50;99.90;;;;;;4919389;29;20056;-82
2021/12/17 08:53:17;;;;;;;33.63;12.23;;;7.90;99.90;;;;;;4937481;29;20048;-82
2021/12/17 08:55:42;;;;;;;26.10;10.80;;;8.20;99.90;;;;;;4938148;29;20106;-82
2021/12/17 08:58:13;;;;;;;26.07;10.53;;;7.60;99.90;;;;;;4940491;28;20028;-82
2021/12/17 09:00:42;;;;;;;28.47;11.47;;;7.50;99.90;;;;;;4936473;29;20047;-82
2021/12/17 09:03:20;;;;;;;27.67;11.17;;;7.70;99.90;;;;;;4938785;29;20039;-82
2021/12/17 09:05:47;;;;;;;26.33;11.70;;;7.80;99.90;;;;;;4920215;29;20058;-83
2021/12/17 09:08:28;;;;;;;29.37;12.80;;;7.60;99.90;;;;;;4919656;29;20036;-82
2021/12/17 09:10:55;;;;;;;28.50;10.73;;;7.90;99.90;;;;;;4920171;29;20071;-82
2021/12/17 09:13:26;;;;;;;30.40;11.80;;;7.40;99.90;;;;;;4920174;29;20107;-82
2021/12/17 09:15:57;;;;;;;27.40;13.10;;;7.90;99.90;;;;;;4919411;29;20059;-83
2021/12/17 09:18:38;;;;;;;29.63;13.13;;;7.70;99.90;;;;;;4936918;29;20079;-82
2021/12/17 09:21:04;;;;;;;29.37;11.83;;;8.40;99.90;;;;;;4936415;29;20110;-82
2021/12/17 09:23:39;;;;;;;28.80;11.87;;;8.40;99.90;;;;;;4936821;29;20485;-82
2021/12/17 09:26:05;;;;;;;25.07;10.80;;;7.60;99.90;;;;;;4919331;29;20090;-82
2021/12/17 09:28:40;;;;;;;27.93;11.87;;;8.00;99.90;;;;;;4919148;29;20047;-82
2021/12/17 09:31:11;;;;;;;26.73;11.33;;;7.90;99.90;;;;;;4920073;29;20142;-82
2021/12/17 09:33:57;;;;;;;25.20;10.90;;;7.80;99.90;;;;;;4919683;29;20049;-82
2021/12/17 09:36:33;;;;;;;29.37;16.30;;;7.90;99.90;;;;;;4936007;29;20047;-82
2021/12/17 09:38:59;;;;;;;27.80;14.27;;;8.40;99.90;;;;;;4919602;29;20044;-82
2021/12/17 09:41:26;;;;;;;28.73;12.83;;;7.10;99.90;;;;;;4919523;29;20059;-85
2021/12/17 09:44:14;;;;;;;28.27;12.53;;;8.50;99.90;;;;;;4935996;29;20109;-82
2021/12/17 09:46:43;;;;;;;24.10;11.07;;;7.70;99.90;;;;;;4936575;29;20401;-82
2021/12/17 09:49:11;;;;;;;26.83;12.23;;;8.50;99.90;;;;;;4935308;29;20149;-82
2021/12/17 09:51:37;;;;;;;27.40;12.50;;;8.70;99.90;;;;;;4935912;29;20066;-82
2021/12/17 09:54:06;;;;;;;28.30;11.83;;;7.90;99.90;;;;;;4919446;29;20123;-82
2021/12/17 09:56:45;;;;;;;26.70;11.90;;;8.70;99.90;;;;;;4935670;29;20194;-82
2021/12/17 09:59:12;;;;;;;27.97;11.10;;;8.10;99.90;;;;;;4935763;29;20063;-83
2021/12/17 10:01:39;;;;;;;28.57;11.60;;;8.00;99.90;;;;;;4944061;29;20043;-82
2021/12/17 10:04:28;;;;;;;25.80;11.27;;;8.50;99.90;;;;;;4934197;29;20043;-81
2021/12/17 10:07:22;;;;;;;24.97;10.33;;;8.20;99.90;;;;;;4936170;29;20044;-82
2021/12/17 10:09:52;;;;;;;;;;;8.10;99.90;;;;;;4935006;29;20047;-82
2021/12/17 10:12:26;;;;;;;23.03;11.07;;;8.10;99.90;;;;;;4934198;29;19929;-82
2021/12/17 10:15:05;;;;;;;23.97;10.63;;;8.20;99.90;;;;;;4933051;29;20051;-82
2021/12/17 10:18:00;;;;;;;26.23;11.17;;;9.20;99.90;;;;;;4935951;29;20058;-82
2021/12/17 10:20:28;;;;;;;24.73;11.70;;;8.20;99.90;;;;;;4933612;29;20485;-83
2021/12/17 10:22:58;;;;;;;24.00;11.23;;;8.70;99.90;;;;;;4935945;29;20492;-81
2021/12/17 10:25:24;;;;;;;21.87;10.20;;;8.70;99.90;;;;;;4933988;29;20051;-83
2021/12/17 10:28:00;;;;;;;24.73;10.93;;;9.50;99.90;;;;;;4935776;29;20404;-83
2021/12/17 10:30:35;;;;;;;25.30;11.10;;;7.60;99.90;;;;;;4930631;29;20484;-85
2021/12/17 10:33:06;;;;;;;27.10;11.77;;;8.10;99.90;;;;;;4933910;29;20051;-84
2021/12/17 10:35:43;;;;;;;24.30;11.23;;;9.20;99.90;;;;;;4936016;29;20052;-84
2021/12/17 10:38:22;;;;;;;29.17;11.87;;;8.80;99.90;;;;;;4935124;29;20044;-85
2021/12/17 10:41:02;;;;;;;23.50;10.73;;;8.20;99.90;;;;;;4934478;29;20062;-84
2021/12/17 10:43:55;;;;;;;26.17;11.30;;;8.40;99.90;;;;;;4934168;29;20059;-84
2021/12/17 10:46:27;;;;;;;29.03;15.47;;;9.40;99.90;;;;;;4933786;29;20043;-86
2021/12/17 10:49:01;;;;;;;24.00;11.07;;;9.80;99.90;;;;;;4934219;29;20572;-85
2021/12/17 10:52:15;;;;;;;23.27;11.07;;;8.60;99.90;;;;;;4934065;29;20051;-84
2021/12/17 10:55:14;;;;;;;24.23;11.18;;;9.80;99.90;;;;;;4934019;29;20052;-84
2021/12/17 10:57:40;;;;;;;23.57;11.07;;;8.50;99.90;;;;;;4934223;29;20059;-85
2021/12/17 11:00:08;;;;;;;21.53;11.27;;;8.40;99.90;;;;;;4936938;29;20047;-86
2021/12/17 11:02:51;;;;;;;22.53;10.80;;;8.60;99.90;;;;;;4937341;29;20046;-84
2021/12/17 11:05:17;;;;;;;21.73;10.47;;;9.00;99.90;;;;;;4937185;29;20047;-86
2021/12/17 11:08:18;;;;;;;18.77;9.57;;;8.60;99.90;;;;;;4936605;29;20047;-86
2021/12/17 11:11:10;;;;;;;18.60;9.83;;;8.10;99.90;;;;;;4936546;29;20058;-86
2021/12/17 11:13:37;;;;;;;19.23;9.03;;;8.90;99.90;;;;;;4937126;29;20134;-86
2021/12/17 11:16:19;;;;;;;18.23;9.57;;;8.70;99.90;;;;;;4937026;29;20500;-86
2021/12/17 11:18:46;;;;;;;20.97;10.20;;;8.50;99.90;;;;;;4937219;29;20126;-85
2021/12/17 11:21:13;;;;;;;25.90;14.43;;;9.10;99.90;;;;;;4936415;29;20226;-85
2021/12/17 11:23:38;;;;;;;22.33;11.17;;;9.10;99.90;;;;;;4936682;29;20052;-84
2021/12/17 11:26:04;;;;;;;25.13;10.80;;;8.50;99.90;;;;;;4932495;29;20400;-84
2021/12/17 11:28:34;;;;;;;21.20;10.53;;;8.50;99.90;;;;;;4916787;29;20039;-84
2021/12/17 11:31:00;;;;;;;21.13;11.20;;;9.00;99.90;;;;;;4917902;29;20601;-85
2021/12/17 11:33:27;;;;;;;16.93;9.47;;;8.50;99.90;;;;;;4918011;29;20044;-88
2021/12/17 11:35:53;;;;;;;23.57;11.13;;;8.60;99.90;;;;;;4917366;29;20060;-84
2021/12/17 11:38:46;;;;;;;20.77;10.70;;;8.70;99.90;;;;;;4918451;29;20095;-84
2021/12/17 11:41:23;;;;;;;21.73;11.03;;;8.70;99.90;;;;;;4923815;29;20051;-85
2021/12/17 11:44:01;;;;;;;20.73;10.53;;;8.70;99.90;;;;;;4931578;29;20090;-86
2021/12/17 11:46:32;;;;;;;22.17;10.17;;;9.20;99.90;;;;;;4952448;29;20452;-86
2021/12/17 11:52:00;;;;;;;21.97;10.63;;;8.70;99.90;;;;;;4936497;29;20093;-87
2021/12/17 11:54:44;;;;;;;22.23;11.30;;;9.50;99.90;;;;;;4938556;29;20051;-89
2021/12/17 11:58:05;;;;;;;23.53;11.67;;;8.70;99.90;;;;;;4964401;23;20055;-87
2021/12/17 12:00:45;;;;;;;23.67;11.47;;;8.80;99.90;;;;;;4956494;29;20081;-86
2021/12/17 12:03:23;;;;;;;24.43;11.90;;;9.60;99.90;;;;;;4940808;29;20446;-84
2021/12/17 12:05:56;;;;;;;25.10;11.90;;;8.30;99.90;;;;;;4937187;29;20090;-85
2021/12/17 12:08:27;;;;;;;23.88;11.88;;;8.70;99.90;;;;;;4954481;29;20047;-85
2021/12/17 12:11:25;;;;;;;23.00;11.87;;;9.40;99.90;;;;;;4955269;29;20090;-85
2021/12/17 12:13:53;;;;;;;24.47;12.17;;;8.60;99.90;;;;;;4936043;29;20444;-84
2021/12/17 12:16:30;;;;;;;24.23;11.90;;;9.50;99.90;;;;;;4940453;29;20395;-84
2021/12/17 12:19:07;;;;;;;25.17;12.47;;;8.80;99.90;;;;;;4937721;29;20502;-85
2021/12/17 12:21:50;;;;;;;29.57;13.20;;;8.90;99.90;;;;;;4941897;29;20094;-85
2021/12/17 12:24:16;;;;;;;28.20;16.40;;;8.90;99.90;;;;;;4939171;29;20488;-85
2021/12/17 12:27:00;;;;;;;29.67;15.37;;;9.50;99.90;;;;;;4939088;29;20055;-85
2021/12/17 12:29:27;;;;;;;29.08;13.98;;;9.60;99.90;;;;;;4938136;29;20043;-85
2021/12/17 12:32:13;;;;;;;31.80;14.37;;;9.70;99.90;;;;;;4938605;29;20444;-85
2021/12/17 12:34:43;;;;;;;27.30;13.90;;;8.70;99.90;;;;;;4954383;29;20118;-85
2021/12/17 12:37:33;;;;;;;29.80;14.83;;;9.00;99.90;;;;;;4939153;29;20038;-85
2021/12/17 12:40:00;;;;;;;30.27;15.07;;;8.80;99.90;;;;;;4936789;29;20055;-85
2021/12/17 12:42:55;;;;;;;31.33;16.80;;;9.80;99.90;;;;;;4945728;29;20433;-84
2021/12/17 12:45:22;;;;;;;26.27;13.37;;;8.90;99.90;;;;;;4937139;29;20070;-84
2021/12/17 12:48:02;;;;;;;24.60;12.17;;;8.70;99.90;;;;;;4938958;29;20090;-85
2021/12/17 12:50:40;;;;;;;27.73;12.57;;;7.80;99.90;;;;;;4956008;29;20035;-85
2021/12/17 12:53:31;;;;;;;28.53;13.97;;;9.10;99.90;;;;;;4938454;29;20555;-85
2021/12/17 12:55:57;;;;;;;23.67;12.20;;;9.00;99.90;;;;;;4936593;29;20388;-85
2021/12/17 12:59:13;;;;;;;24.57;12.37;;;9.20;99.90;;;;;;4955829;29;20110;-86
2021/12/17 13:02:30;;;;;;;24.93;11.97;;;9.00;99.90;;;;;;4939231;29;20055;-85
2021/12/17 13:05:47;;;;;;;21.43;11.27;;;9.00;99.90;;;;;;4955797;29;20055;-87
2021/12/17 13:08:19;;;;;;;24.23;12.10;;;9.00;99.90;;;;;;4939175;29;20098;-87
2021/12/17 13:11:06;;;;;;;25.30;11.37;;;8.70;99.90;;;;;;4956829;29;20078;-87
2021/12/17 13:13:39;;;;;;;20.57;10.07;;;8.70;99.90;;;;;;4956099;29;20089;-86
2021/12/17 13:22:42;;;;;;;17.53;9.10;;;8.50;99.90;;;;;;4896297;29;20054;-87
2021/12/17 13:25:08;;;;;;;18.63;9.20;;;9.30;99.90;;;;;;4938885;28;20496;-86
2021/12/17 13:27:54;;;;;;;17.47;9.00;;;8.90;99.90;;;;;;4954807;29;20081;-87
2021/12/17 13:30:35;;;;;;;16.47;8.67;;;9.00;99.90;;;;;;4939196;29;20035;-86
2021/12/17 13:33:01;;;;;;;19.57;9.57;;;8.80;99.90;;;;;;4938807;29;20059;-86
2021/12/17 13:35:27;;;;;;;19.03;9.93;;;8.80;99.90;;;;;;4953980;29;20055;-85
2021/12/17 13:38:07;;;;;;;19.40;9.40;;;9.10;99.90;;;;;;4938220;29;20106;-86
2021/12/17 13:40:39;;;;;;;19.63;10.23;;;8.60;99.90;;;;;;4938802;29;20507;-85
2021/12/17 13:43:04;;;;;;;20.10;10.47;;;9.60;99.90;;;;;;4937551;29;20082;-86
2021/12/17 13:45:30;;;;;;;19.00;9.73;;;7.90;99.90;;;;;;4936550;29;20543;-86
2021/12/17 13:47:57;;;;;;;18.80;9.37;;;9.10;99.90;;;;;;4938241;29;20057;-86
2021/12/17 13:50:32;;;;;;;17.17;8.30;;;8.60;99.90;;;;;;4938883;29;20126;-86
2021/12/17 13:53:20;;;;;;;17.90;8.40;;;9.20;99.90;;;;;;4935615;29;20062;-87
2021/12/17 13:55:49;;;;;;;15.53;7.70;;;8.80;99.90;;;;;;4936076;29;20439;-86
2021/12/17 13:58:28;;;;;;;18.83;8.77;;;8.70;99.90;;;;;;4940346;29;20507;-86
2021/12/17 14:01:09;;;;;;;20.10;8.97;;;8.50;99.90;;;;;;4936343;29;20044;-86
2021/12/17 14:04:26;;;;;;;16.73;8.50;;;8.70;99.90;;;;;;4956328;23;20055;-86
2021/12/17 14:07:42;;;;;;;15.20;8.33;;;8.70;99.90;;;;;;4920827;29;20047;-87
2021/12/17 14:10:59;;;;;;;17.47;8.17;;;8.40;99.90;;;;;;4920607;29;20138;-86
2021/12/17 14:14:16;;;;;;;14.27;7.57;;;8.70;99.90;;;;;;4923902;29;20058;-85
2021/12/17 14:17:08;;;;;;;15.27;7.47;;;8.70;99.90;;;;;;4920541;29;20078;-86
2021/12/17 14:20:14;;;;;;;15.10;7.40;;;8.90;99.90;;;;;;4918771;29;20135;-86
2021/12/17 14:22:42;;;;;;;13.00;6.17;;;9.30;99.90;;;;;;4919879;29;20039;-86
2021/12/17 14:25:41;;;;;;;13.35;5.60;;;8.80;99.90;;;;;;4935808;29;20043;-86
2021/12/17 14:28:16;;;;;;;;;;;9.00;99.90;;;;;;4919722;29;20043;-86
2021/12/17 14:31:06;;;;;;;11.63;4.87;;;8.50;99.90;;;;;;4918046;29;19974;-86
2021/12/17 14:33:46;;;;;;;9.60;4.43;;;8.80;99.90;;;;;;4918732;29;20056;-86
2021/12/17 14:36:38;;;;;;;9.90;4.33;;;8.40;99.90;;;;;;4919455;29;20469;-86
2021/12/17 14:39:16;;;;;;;9.97;4.43;;;8.50;99.90;;;;;;4917513;29;20059;-86
2021/12/17 14:41:57;;;;;;;11.27;4.53;;;8.90;99.90;;;;;;4918480;29;20082;-86
2021/12/17 14:44:47;;;;;;;10.50;4.77;;;8.90;99.90;;;;;;4934772;29;20051;-86
2021/12/17 14:47:40;;;;;;;11.83;4.67;;;8.70;99.90;;;;;;4935220;29;20052;-87
2021/12/17 15:06:16;;;;;;;;;;;9.90;99.90;;;;;;4915655;29;20067;-85
2021/12/17 15:08:45;;;;;;;9.90;3.57;;;9.00;99.90;;;;;;4899161;29;19923;-85
2021/12/17 15:11:37;;;;;;;10.10;3.83;;;8.30;99.90;;;;;;4892197;29;20132;-85
2021/12/17 15:14:18;;;;;;;10.57;3.63;;;8.40;99.90;;;;;;4893488;29;20080;-85
2021/12/17 15:16:50;;;;;;;10.20;3.90;;;8.50;99.90;;;;;;4893959;29;20453;-85
2021/12/17 15:19:21;;;;;;;9.70;4.07;;;8.40;99.90;;;;;;4894881;29;20058;-86
2021/12/17 15:22:02;;;;;;;12.00;3.73;;;7.90;99.90;;;;;;4894453;29;20053;-87
2021/12/17 15:24:34;;;;;;;10.07;3.83;;;8.50;99.90;;;;;;4893436;29;20039;-86
2021/12/17 15:27:15;;;;;;;10.23;3.97;;;8.30;99.90;;;;;;4895120;29;20451;-86
2021/12/17 15:29:40;;;;;;;9.97;4.10;;;9.10;99.90;;;;;;4895708;29;20079;-84
2021/12/17 15:32:42;;;;;;;10.13;4.27;;;8.60;99.90;;;;;;4896128;29;20088;-88
2021/12/17 15:35:16;;;;;;;10.73;4.57;;;8.80;99.90;;;;;;4842999;29;20517;-85
2021/12/17 15:37:49;;;;;;;11.40;4.53;;;8.70;99.90;;;;;;4841282;29;20123;-85
2021/12/17 15:40:27;;;;;;;12.43;5.10;;;8.30;99.90;;;;;;4893445;29;20070;-84
2021/12/17 15:43:22;;;;;;;12.17;4.50;;;8.60;99.90;;;;;;4894967;29;20101;-84
2021/12/17 15:45:50;;;;;;;10.87;4.33;;;9.00;99.90;;;;;;4884042;29;20061;-83
2021/12/17 15:48:18;;;;;;;11.37;4.80;;;8.70;99.90;;;;;;4895364;29;20052;-84
2021/12/17 15:50:44;;;;;;;10.80;4.80;;;8.60;99.90;;;;;;4898833;29;20401;-86
2021/12/17 15:53:21;;;;;;;12.50;5.50;;;9.20;99.90;;;;;;4899886;29;20054;-90
2021/12/17 15:55:54;;;;;;;13.43;5.87;;;8.30;99.90;;;;;;4898640;29;20054;-85
2021/12/17 15:58:26;;;;;;;12.67;5.20;;;8.50;99.90;;;;;;4899930;29;20040;-86
2021/12/17 16:00:51;;;;;;;13.47;5.87;;;7.90;99.90;;;;;;4883110;29;20050;-84
2021/12/17 16:03:25;;;;;;;17.97;8.83;;;8.90;99.90;;;;;;4919938;29;20070;-84
2021/12/17 16:06:16;;;;;;;21.67;10.93;;;8.90;99.90;;;;;;4924375;29;20113;-84
2021/12/17 16:09:05;;;;;;;23.70;12.47;;;9.00;99.90;;;;;;4938811;29;20093;-83
2021/12/17 16:18:01;;;;;;;16.00;8.10;;;9.00;99.90;;;;;;4972622;23;20082;-83
2021/12/17 16:22:53;;;;;;;17.23;6.93;;;8.40;99.90;;;;;;4958121;28;20054;-86
2021/12/17 16:25:31;;;;;;;15.17;7.30;;;8.90;99.90;;;;;;4959681;28;20439;-86
2021/12/17 16:28:03;;;;;;;15.43;7.63;;;8.10;99.90;;;;;;4959324;28;20483;-85
2021/12/17 16:30:30;;;;;;;17.53;8.80;;;8.40;99.90;;;;;;4958454;28;20035;-86
2021/12/17 16:32:56;;;;;;;18.60;11.20;;;8.40;99.90;;;;;;4958702;28;20047;-85
2021/12/17 16:35:31;;;;;;;25.73;13.90;;;8.30;99.90;;;;;;4959064;28;20146;-85
2021/12/17 16:38:02;;;;;;;24.53;13.80;;;8.80;99.90;;;;;;4974051;28;20145;-85
2021/12/17 16:40:40;;;;;;;15.63;8.70;;;8.00;99.90;;;;;;4974999;28;20137;-86
2021/12/17 16:43:28;;;;;;;16.63;7.27;;;8.20;99.90;;;;;;4975501;23;20689;-83
2021/12/17 16:48:51;;;;;;;14.97;7.47;;;8.80;99.90;;;;;;4938560;29;20039;-85
2021/12/17 16:51:29;;;;;;;15.97;7.17;;;8.90;99.90;;;;;;4935825;29;20054;-85
2021/12/17 16:54:05;;;;;;;17.23;8.10;;;8.80;99.90;;;;;;4936883;29;20046;-84
2021/12/17 16:56:42;;;;;;;16.07;6.93;;;9.20;99.90;;;;;;4936687;29;20046;-84
2021/12/17 16:59:29;;;;;;;18.07;6.83;;;8.20;99.90;;;;;;4937956;29;20102;-84
2021/12/17 17:01:55;;;;;;;18.27;7.20;;;8.40;99.90;;;;;;4936283;29;20563;-84
2021/12/17 17:04:39;;;;;;;15.43;6.90;;;9.40;99.90;;;;;;4938519;29;20039;-84
2021/12/17 17:07:23;;;;;;;13.77;6.60;;;8.70;99.90;;;;;;4937393;29;20061;-84
2021/12/17 17:10:09;;;;;;;14.07;6.20;;;8.50;99.90;;;;;;4938678;29;20055;-84
2021/12/17 17:13:00;;;;;;;16.03;6.83;;;8.30;99.90;;;;;;4936236;29;20133;-84
2021/12/17 17:16:17;;;;;;;15.50;7.57;;;7.90;99.90;;;;;;4937961;29;20139;-84
2021/12/17 17:18:43;;;;;;;13.93;6.93;;;8.40;99.90;;;;;;4935944;29;20091;-84
2021/12/17 17:21:25;;;;;;;15.60;7.10;;;8.30;99.90;;;;;;4944449;29;20044;-84
2021/12/17 17:24:00;;;;;;;16.90;8.43;;;8.20;99.90;;;;;;4938318;29;20510;-84
2021/12/17 17:26:31;;;;;;;15.50;7.43;;;8.50;99.90;;;;;;4937626;29;20097;-84
2021/12/17 17:29:09;;;;;;;15.00;7.67;;;8.50;99.90;;;;;;4938405;29;20425;-85
2021/12/17 17:31:43;;;;;;;18.13;8.67;;;8.80;99.90;;;;;;4936704;29;20043;-83
2021/12/17 17:34:27;;;;;;;17.23;8.33;;;8.20;99.90;;;;;;4937339;29;20101;-83
2021/12/17 17:37:08;;;;;;;15.48;7.93;;;8.30;99.90;;;;;;4936781;29;20583;-83
2021/12/17 17:39:49;;;;;;;16.00;7.70;;;9.10;99.90;;;;;;4932551;29;20164;-83